SWA2332 PHOG-PHKO
Flight info
| Callsign | SWA2332 |
|---|---|
| Flight time | 0h 20m |
| Altitude | 15000 |
| Route | ONOHI2 ONOHI VECKI9 |
| Aircraft | B38M/M-L/HB1 |
Departure
| Time | 2026-04-24 00:51 |
|---|---|
| Airport | Kahului International Airport (PHOG) |
Arrival
| Time | 2026-04-24 01:12 |
|---|---|
| Airport | Ellison Onizuka Kona International Airport at Keāhole (PHKO) |
| Time | Latitude | Longitude | Altitude | Speed | Heading |
|---|---|---|---|---|---|
| 2026-04-24 00:29 | 20.89193 | -156.43742 | 47 ft | 0 kts | 305° |
| 2026-04-24 00:30 | 20.89192 | -156.43742 | 47 ft | 0 kts | 305° |
| 2026-04-24 00:37 | 20.89192 | -156.43741 | 47 ft | 0 kts | 305° |
| 2026-04-24 00:43 | 20.89191 | -156.43741 | 47 ft | 0 kts | 305° |
| 2026-04-24 00:45 | 20.89190 | -156.43738 | 47 ft | 3 kts | 304° |
| 2026-04-24 00:45 | 20.89175 | -156.43715 | 45 ft | 4 kts | 301° |
| 2026-04-24 00:45 | 20.89162 | -156.43690 | 43 ft | 4 kts | 297° |
| 2026-04-24 00:45 | 20.89151 | -156.43663 | 47 ft | 4 kts | 289° |
| 2026-04-24 00:46 | 20.89145 | -156.43636 | 46 ft | 4 kts | 266° |
| 2026-04-24 00:46 | 20.89152 | -156.43617 | 47 ft | 1 kts | 216° |
| 2026-04-24 00:46 | 20.89153 | -156.43617 | 47 ft | 0 kts | 216° |
| 2026-04-24 00:47 | 20.89153 | -156.43616 | 47 ft | 0 kts | 216° |
| 2026-04-24 00:49 | 20.89147 | -156.43621 | 47 ft | 3 kts | 216° |
| 2026-04-24 00:49 | 20.89124 | -156.43639 | 47 ft | 6 kts | 216° |
| 2026-04-24 00:49 | 20.89084 | -156.43669 | 47 ft | 8 kts | 214° |
| 2026-04-24 00:49 | 20.89027 | -156.43709 | 46 ft | 11 kts | 205° |
| 2026-04-24 00:50 | 20.88978 | -156.43692 | 47 ft | 8 kts | 123° |
| 2026-04-24 00:50 | 20.88944 | -156.43633 | 47 ft | 9 kts | 105° |
| 2026-04-24 00:50 | 20.88964 | -156.43598 | 47 ft | 0 kts | 35° |
| 2026-04-24 00:51 | 20.89157 | -156.43454 | 48 ft | 78 kts | 35° |
| 2026-04-24 00:51 | 20.89823 | -156.42957 | 62 ft | 150 kts | 35° |
| 2026-04-24 00:51 | 20.90758 | -156.42257 | 696 ft | 176 kts | 32° |
| 2026-04-24 00:51 | 20.91792 | -156.41491 | 1742 ft | 180 kts | 35° |
| 2026-04-24 00:52 | 20.92765 | -156.40709 | 2905 ft | 176 kts | 34° |
| 2026-04-24 00:52 | 20.93756 | -156.39866 | 3599 ft | 192 kts | 54° |
| 2026-04-24 00:52 | 20.94194 | -156.38464 | 4202 ft | 213 kts | 88° |
| 2026-04-24 00:52 | 20.93746 | -156.36856 | 4706 ft | 247 kts | 125° |
| 2026-04-24 00:53 | 20.92592 | -156.35474 | 5704 ft | 253 kts | 128° |
| 2026-04-24 00:53 | 20.91554 | -156.33880 | 6529 ft | 270 kts | 124° |
| 2026-04-24 00:53 | 20.90486 | -156.32178 | 7406 ft | 278 kts | 124° |
| 2026-04-24 00:53 | 20.89411 | -156.30465 | 8410 ft | 285 kts | 121° |
| 2026-04-24 00:54 | 20.88626 | -156.28492 | 9327 ft | 291 kts | 99° |
| 2026-04-24 00:54 | 20.88366 | -156.26337 | 10276 ft | 297 kts | 94° |
| 2026-04-24 00:54 | 20.88152 | -156.24071 | 10852 ft | 315 kts | 95° |
| 2026-04-24 00:54 | 20.87949 | -156.21673 | 11467 ft | 330 kts | 92° |
| 2026-04-24 00:55 | 20.87751 | -156.19190 | 12215 ft | 338 kts | 92° |
| 2026-04-24 00:55 | 20.87561 | -156.16681 | 13145 ft | 341 kts | 91° |
| 2026-04-24 00:55 | 20.87370 | -156.14130 | 13937 ft | 347 kts | 91° |
| 2026-04-24 00:55 | 20.87182 | -156.11535 | 14633 ft | 354 kts | 92° |
| 2026-04-24 00:56 | 20.86985 | -156.08897 | 14859 ft | 356 kts | 94° |
| 2026-04-24 00:56 | 20.86333 | -156.06325 | 14914 ft | 368 kts | 113° |
| 2026-04-24 00:56 | 20.84882 | -156.04031 | 14932 ft | 378 kts | 133° |
| 2026-04-24 00:56 | 20.82780 | -156.02317 | 14956 ft | 382 kts | 152° |
| 2026-04-24 00:57 | 20.80344 | -156.01425 | 14980 ft | 369 kts | 172° |
| 2026-04-24 00:57 | 20.77841 | -156.01345 | 14990 ft | 353 kts | 181° |
| 2026-04-24 00:57 | 20.73064 | -156.01417 | 14977 ft | 340 kts | 182° |
| 2026-04-24 00:58 | 20.70696 | -156.01474 | 14980 ft | 340 kts | 182° |
| 2026-04-24 00:58 | 20.68330 | -156.01540 | 14981 ft | 340 kts | 182° |
| 2026-04-24 00:58 | 20.65950 | -156.01611 | 14970 ft | 343 kts | 182° |
| 2026-04-24 00:58 | 20.63572 | -156.01683 | 14979 ft | 341 kts | 182° |
| 2026-04-24 00:59 | 20.61197 | -156.01756 | 14967 ft | 342 kts | 182° |
| 2026-04-24 00:59 | 20.58813 | -156.01830 | 14740 ft | 341 kts | 182° |
| 2026-04-24 00:59 | 20.56445 | -156.01902 | 14503 ft | 338 kts | 182° |
| 2026-04-24 00:59 | 20.54101 | -156.01975 | 14075 ft | 337 kts | 182° |
| 2026-04-24 01:00 | 20.51747 | -156.02047 | 13425 ft | 339 kts | 182° |
| 2026-04-24 01:00 | 20.49384 | -156.02119 | 12781 ft | 340 kts | 182° |
| 2026-04-24 01:00 | 20.47013 | -156.02192 | 12140 ft | 340 kts | 182° |
| 2026-04-24 01:00 | 20.44654 | -156.02265 | 11559 ft | 338 kts | 182° |
| 2026-04-24 01:01 | 20.42360 | -156.02335 | 11130 ft | 328 kts | 182° |
| 2026-04-24 01:01 | 20.40110 | -156.02404 | 10698 ft | 319 kts | 182° |
| 2026-04-24 01:01 | 20.37898 | -156.02472 | 10140 ft | 316 kts | 182° |
| 2026-04-24 01:01 | 20.35719 | -156.02539 | 9628 ft | 310 kts | 182° |
| 2026-04-24 01:02 | 20.33608 | -156.02603 | 9321 ft | 297 kts | 182° |
| 2026-04-24 01:02 | 20.31618 | -156.02664 | 9280 ft | 275 kts | 182° |
| 2026-04-24 01:02 | 20.29761 | -156.02721 | 9205 ft | 262 kts | 182° |
| 2026-04-24 01:02 | 20.27969 | -156.02776 | 8928 ft | 256 kts | 182° |
| 2026-04-24 01:03 | 20.26184 | -156.02831 | 8455 ft | 255 kts | 182° |
| 2026-04-24 01:03 | 20.24416 | -156.02885 | 8007 ft | 254 kts | 182° |
| 2026-04-24 01:03 | 20.22657 | -156.02939 | 7570 ft | 252 kts | 182° |
| 2026-04-24 01:03 | 20.20907 | -156.02992 | 7170 ft | 250 kts | 182° |
| 2026-04-24 01:04 | 20.19172 | -156.03045 | 6785 ft | 249 kts | 182° |
| 2026-04-24 01:04 | 20.17443 | -156.03099 | 6370 ft | 248 kts | 182° |
| 2026-04-24 01:04 | 20.15724 | -156.03151 | 5929 ft | 247 kts | 181° |
| 2026-04-24 01:04 | 20.14007 | -156.03204 | 5633 ft | 247 kts | 181° |
| 2026-04-24 01:05 | 20.12294 | -156.03257 | 5436 ft | 247 kts | 181° |
| 2026-04-24 01:05 | 20.10576 | -156.03309 | 5214 ft | 247 kts | 180° |
| 2026-04-24 01:05 | 20.08860 | -156.03329 | 4952 ft | 247 kts | 176° |
| 2026-04-24 01:05 | 20.07142 | -156.03274 | 4666 ft | 247 kts | 178° |
| 2026-04-24 01:06 | 20.05425 | -156.03221 | 4408 ft | 245 kts | 178° |
| 2026-04-24 01:06 | 20.03745 | -156.03175 | 4253 ft | 238 kts | 178° |
| 2026-04-24 01:06 | 20.02110 | -156.03131 | 4138 ft | 232 kts | 177° |
| 2026-04-24 01:06 | 20.00518 | -156.03089 | 4043 ft | 231 kts | 178° |
| 2026-04-24 01:07 | 19.98919 | -156.03047 | 3957 ft | 229 kts | 177° |
| 2026-04-24 01:07 | 19.97325 | -156.02973 | 3930 ft | 229 kts | 172° |
| 2026-04-24 01:07 | 19.95740 | -156.02778 | 3946 ft | 230 kts | 175° |
| 2026-04-24 01:07 | 19.94149 | -156.02775 | 3794 ft | 228 kts | 181° |
| 2026-04-24 01:08 | 19.92560 | -156.02889 | 3480 ft | 227 kts | 183° |
| 2026-04-24 01:08 | 19.90994 | -156.03034 | 3133 ft | 225 kts | 181° |
| 2026-04-24 01:08 | 19.89448 | -156.03178 | 2815 ft | 222 kts | 180° |
| 2026-04-24 01:08 | 19.87918 | -156.03310 | 2488 ft | 219 kts | 179° |
| 2026-04-24 01:09 | 19.86400 | -156.03444 | 2199 ft | 218 kts | 179° |
| 2026-04-24 01:09 | 19.84895 | -156.03580 | 1896 ft | 216 kts | 178° |
| 2026-04-24 01:09 | 19.83475 | -156.03705 | 1668 ft | 194 kts | 181° |
| 2026-04-24 01:09 | 19.82191 | -156.03823 | 1426 ft | 179 kts | 178° |
| 2026-04-24 01:10 | 19.80953 | -156.03930 | 1147 ft | 180 kts | 178° |
| 2026-04-24 01:10 | 19.79742 | -156.04047 | 948 ft | 169 kts | 180° |
| 2026-04-24 01:10 | 19.78978 | -156.04101 | 760 ft | 164 kts | 183° |
| 2026-04-24 01:10 | 19.77856 | -156.04203 | 574 ft | 159 kts | 188° |
| 2026-04-24 01:11 | 19.76796 | -156.04307 | 371 ft | 149 kts | 187° |
| 2026-04-24 01:11 | 19.75796 | -156.04394 | 140 ft | 141 kts | 189° |
| 2026-04-24 01:11 | 19.74844 | -156.04481 | 48 ft | 126 kts | 188° |
| 2026-04-24 01:11 | 19.74203 | -156.04540 | 48 ft | 59 kts | 185° |
| 2026-04-24 01:12 | 19.73822 | -156.04572 | 48 ft | 47 kts | 185° |
| 2026-04-24 01:12 | 19.73622 | -156.04570 | 48 ft | 18 kts | 139° |
| 2026-04-24 01:12 | 19.73602 | -156.04436 | 47 ft | 20 kts | 94° |
| 2026-04-24 01:12 | 19.73600 | -156.04358 | 44 ft | 6 kts | 71° |
| 2026-04-24 01:13 | 19.73639 | -156.04331 | 47 ft | 8 kts | 15° |
| 2026-04-24 01:13 | 19.73705 | -156.04323 | 46 ft | 10 kts | 12° |
| 2026-04-24 01:13 | 19.73726 | -156.04264 | 45 ft | 9 kts | 96° |
| 2026-04-24 01:13 | 19.73724 | -156.04223 | 48 ft | 2 kts | 94° |
| 2026-04-24 01:14 | 19.73723 | -156.04218 | 48 ft | 0 kts | 94° |
| 2026-04-24 01:15 | 19.73723 | -156.04219 | 48 ft | 1 kts | 94° |
| 2026-04-24 01:15 | 19.73723 | -156.04220 | 48 ft | 0 kts | 94° |